Time;durP1;ratioP1;P1;durP2;ratioP2;P2;SDS_P1;SDS_P2;PMS_P1;PMS_P2;Temp;Humidity;BMP_temperature;BMP_pressure;BME280_temperature;BME280_humidity;BME280_pressure;Samples;Min_cycle;Max_cycle;Signal;HPM_P1;HPM_P2
2023/09/09 00:00:50;;;;;;;13.07;6.40;;;25.70;67.40;;;;;;5031149;28;20402;-68
2023/09/09 00:03:54;;;;;;;19.23;6.60;;;25.60;67.40;;;;;;5030862;28;20044;-68
2023/09/09 00:07:03;;;;;;;9.85;6.40;;;25.60;67.90;;;;;;5030783;28;20052;-68
2023/09/09 00:10:07;;;;;;;11.98;6.93;;;25.60;66.40;;;;;;5030744;28;20040;-67
2023/09/09 00:13:11;;;;;;;13.25;6.88;;;26.30;66.60;;;;;;5031093;28;20064;-68
2023/09/09 00:16:15;;;;;;;9.45;6.72;;;25.70;66.70;;;;;;5031035;28;20092;-68
2023/09/09 00:19:21;;;;;;;10.60;7.55;;;25.70;66.40;;;;;;5030626;28;20417;-67
2023/09/09 00:22:26;;;;;;;13.35;7.10;;;25.60;66.40;;;;;;5030515;28;20060;-67
2023/09/09 00:25:30;;;;;;;11.52;7.43;;;25.60;66.80;;;;;;5030832;28;20044;-67
2023/09/09 00:28:34;;;;;;;12.65;7.40;;;26.30;66.70;;;;;;5030673;28;20044;-69
2023/09/09 00:31:37;;;;;;;14.10;6.68;;;25.60;66.00;;;;;;5030638;28;20040;-68
2023/09/09 00:34:41;;;;;;;10.70;6.80;;;25.80;66.80;;;;;;5031245;28;20711;-68
2023/09/09 00:37:45;;;;;;;9.95;7.30;;;25.60;66.80;;;;;;5034174;28;20044;-67
2023/09/09 00:41:12;;;;;;;14.75;6.65;;;25.60;66.90;;;;;;5033661;28;20056;-68
2023/09/09 00:44:18;;;;;;;9.95;6.50;;;25.50;66.80;;;;;;5034516;28;20544;-67
2023/09/09 00:47:24;;;;;;;9.32;6.90;;;25.50;66.30;;;;;;5033927;28;20056;-68
2023/09/09 00:50:29;;;;;;;10.90;7.15;;;25.40;66.70;;;;;;5034416;28;20044;-68
2023/09/09 00:53:34;;;;;;;13.13;7.70;;;25.50;66.50;;;;;;5033206;28;20052;-68
2023/09/09 00:56:38;;;;;;;9.18;7.10;;;25.40;67.30;;;;;;5033932;28;20036;-67
2023/09/09 00:59:43;;;;;;;11.13;7.78;;;25.40;67.40;;;;;;5033942;28;20044;-68
2023/09/09 01:02:47;;;;;;;10.68;6.93;;;25.30;67.30;;;;;;5033782;28;20040;-67
2023/09/09 01:05:51;;;;;;;10.07;6.72;;;25.30;66.70;;;;;;5033970;28;20068;-68
2023/09/09 01:08:55;;;;;;;13.40;6.78;;;25.30;67.20;;;;;;5033897;28;20048;-68
2023/09/09 01:11:59;;;;;;;12.10;7.35;;;25.30;68.00;;;;;;5034004;28;20053;-68
2023/09/09 01:15:06;;;;;;;10.25;7.13;;;25.30;67.90;;;;;;5034037;28;20048;-68
2023/09/09 01:18:10;;;;;;;9.95;7.40;;;25.30;67.70;;;;;;5033053;28;20048;-68
2023/09/09 01:21:17;;;;;;;12.90;7.60;;;25.10;67.90;;;;;;5033857;28;20489;-69
2023/09/09 01:24:20;;;;;;;14.43;7.32;;;25.00;68.60;;;;;;5032725;28;20113;-68
2023/09/09 01:27:24;;;;;;;11.80;7.80;;;24.90;69.10;;;;;;5032557;28;20064;-68
2023/09/09 01:30:28;;;;;;;8.68;7.15;;;24.80;69.10;;;;;;5033777;28;20048;-68
2023/09/09 01:33:33;;;;;;;12.90;7.95;;;24.90;69.00;;;;;;5033226;28;20061;-68
2023/09/09 01:36:36;;;;;;;12.45;7.22;;;24.90;68.20;;;;;;5032610;28;20044;-67
2023/09/09 01:39:40;;;;;;;16.65;7.03;;;24.20;68.30;;;;;;5032286;28;20045;-67
2023/09/09 01:42:47;;;;;;;10.95;7.50;;;25.00;68.90;;;;;;5032614;28;20061;-67
2023/09/09 01:45:52;;;;;;;11.93;7.38;;;26.70;69.50;;;;;;5032115;28;20128;-68
2023/09/09 01:48:57;;;;;;;15.48;8.40;;;24.90;68.80;;;;;;5032154;28;20048;-69
2023/09/09 01:52:02;;;;;;;9.25;7.45;;;24.40;69.60;;;;;;5032963;28;20046;-68
2023/09/09 01:55:06;;;;;;;15.05;7.65;;;24.80;70.60;;;;;;5033186;28;20056;-68
2023/09/09 01:58:10;;;;;;;12.73;8.02;;;25.00;70.60;;;;;;5033048;28;20053;-69
2023/09/09 02:01:14;;;;;;;14.20;7.70;;;24.70;70.00;;;;;;5032064;28;20048;-68
2023/09/09 02:04:18;;;;;;;20.67;7.85;;;24.60;70.60;;;;;;5033002;28;20045;-67
2023/09/09 02:07:22;;;;;;;18.63;7.75;;;24.50;71.20;;;;;;5032501;28;20056;-67
2023/09/09 02:10:27;;;;;;;12.10;7.57;;;24.50;70.80;;;;;;5032586;28;20040;-68
2023/09/09 02:13:31;;;;;;;17.35;8.55;;;24.50;70.60;;;;;;5032671;28;20048;-68
2023/09/09 02:16:34;;;;;;;13.48;7.95;;;24.50;71.70;;;;;;5032113;28;20036;-68
2023/09/09 02:19:39;;;;;;;17.45;8.40;;;24.40;71.60;;;;;;5031993;28;20048;-68
2023/09/09 02:22:43;;;;;;;12.00;7.70;;;23.60;71.70;;;;;;5033140;28;20064;-68
2023/09/09 02:25:47;;;;;;;20.40;8.50;;;23.90;72.30;;;;;;5032534;28;20044;-68
2023/09/09 02:28:51;;;;;;;14.63;8.85;;;23.90;72.70;;;;;;5032584;28;20052;-68
2023/09/09 02:31:54;;;;;;;11.20;8.02;;;23.90;72.10;;;;;;5031381;28;20045;-68
2023/09/09 02:34:59;;;;;;;12.60;8.45;;;24.00;72.80;;;;;;5032100;28;20044;-67
2023/09/09 02:38:04;;;;;;;11.85;8.20;;;23.80;72.90;;;;;;5031925;28;20064;-68
2023/09/09 02:41:07;;;;;;;15.77;7.85;;;23.70;72.90;;;;;;5031170;28;20040;-68
2023/09/09 02:44:11;;;;;;;11.07;8.40;;;23.60;73.30;;;;;;5031157;28;20140;-68
2023/09/09 02:47:16;;;;;;;11.70;8.07;;;23.70;73.90;;;;;;5030968;28;20445;-68
2023/09/09 02:50:21;;;;;;;15.07;7.75;;;23.70;73.80;;;;;;5031322;28;20048;-67
2023/09/09 02:53:25;;;;;;;15.15;7.60;;;23.70;74.10;;;;;;5031364;28;20044;-67
2023/09/09 02:56:28;;;;;;;14.27;7.72;;;23.70;74.20;;;;;;5031259;28;20045;-68
2023/09/09 02:59:33;;;;;;;15.82;8.25;;;23.70;74.60;;;;;;5030946;28;20048;-68
2023/09/09 03:02:37;;;;;;;15.00;8.73;;;23.70;75.20;;;;;;5031119;28;20056;-68
2023/09/09 03:05:44;;;;;;;16.50;8.55;;;23.70;74.80;;;;;;5031087;28;20072;-68
2023/09/09 03:08:49;;;;;;;16.05;8.13;;;23.70;75.30;;;;;;5031459;28;20052;-68
2023/09/09 03:11:53;;;;;;;11.27;8.13;;;23.40;75.40;;;;;;5030539;28;20041;-68
2023/09/09 03:14:57;;;;;;;11.43;8.27;;;23.40;74.80;;;;;;5030867;28;20056;-68
2023/09/09 03:18:01;;;;;;;19.65;9.25;;;23.40;75.40;;;;;;5030648;28;20057;-68
2023/09/09 03:21:05;;;;;;;14.57;8.50;;;23.20;75.60;;;;;;5030713;28;20064;-68
2023/09/09 03:24:09;;;;;;;14.05;8.75;;;23.20;75.80;;;;;;5031631;28;20122;-68
2023/09/09 03:27:13;;;;;;;15.20;8.60;;;23.10;76.20;;;;;;5031146;28;20056;-68
2023/09/09 03:30:17;;;;;;;13.77;8.23;;;23.10;76.40;;;;;;5030467;28;20048;-68
2023/09/09 03:33:21;;;;;;;15.32;8.77;;;23.00;76.20;;;;;;5030996;28;20073;-68
2023/09/09 03:36:26;;;;;;;14.88;8.38;;;24.40;76.40;;;;;;5030328;28;20044;-67
2023/09/09 03:39:30;;;;;;;18.98;8.48;;;23.20;76.00;;;;;;5030501;28;20044;-66
2023/09/09 03:42:33;;;;;;;18.55;8.88;;;23.10;76.20;;;;;;5030365;28;20056;-68
2023/09/09 03:45:37;;;;;;;14.68;8.65;;;23.20;76.80;;;;;;5018886;28;20052;-67
2023/09/09 03:48:41;;;;;;;13.98;9.20;;;23.00;76.80;;;;;;5031038;28;20124;-67
2023/09/09 03:51:45;;;;;;;12.07;8.50;;;23.00;76.70;;;;;;5030204;28;20064;-67
2023/09/09 03:54:49;;;;;;;19.02;8.90;;;22.90;77.10;;;;;;5031147;28;20516;-68
2023/09/09 03:57:53;;;;;;;12.70;8.75;;;22.90;77.10;;;;;;5030222;28;20072;-68
2023/09/09 04:01:04;;;;;;;20.05;9.02;;;22.90;77.90;;;;;;5030107;28;20504;-69
2023/09/09 04:04:08;;;;;;;16.58;8.50;;;22.90;78.00;;;;;;5018759;28;20052;-68
2023/09/09 04:07:12;;;;;;;14.88;8.73;;;22.90;77.70;;;;;;5029682;28;20052;-68
2023/09/09 04:10:17;;;;;;;17.73;9.13;;;22.90;77.40;;;;;;5032487;28;20045;-68
2023/09/09 04:13:21;;;;;;;22.70;13.25;;;22.80;77.30;;;;;;5033900;28;20103;-68
2023/09/09 04:16:25;;;;;;;20.65;9.13;;;22.70;77.90;;;;;;5034066;28;20040;-68
2023/09/09 04:19:29;;;;;;;18.73;8.27;;;22.60;77.80;;;;;;5034129;28;20520;-68
2023/09/09 04:22:33;;;;;;;16.63;8.35;;;22.50;77.70;;;;;;5034088;28;20037;-67
2023/09/09 04:25:37;;;;;;;19.50;8.40;;;22.40;77.40;;;;;;5034034;28;20048;-68
2023/09/09 04:28:41;;;;;;;12.98;8.40;;;22.40;78.60;;;;;;5034876;28;20064;-67
2023/09/09 04:31:46;;;;;;;19.05;8.13;;;22.40;78.40;;;;;;5034039;28;20064;-68
2023/09/09 04:34:50;;;;;;;18.60;7.90;;;22.30;77.90;;;;;;5034650;28;20056;-69
2023/09/09 04:37:55;;;;;;;15.68;8.73;;;22.50;77.20;;;;;;5033538;28;20048;-69
2023/09/09 04:40:59;;;;;;;23.00;8.88;;;22.50;77.80;;;;;;5034663;28;20049;-70
2023/09/09 04:44:04;;;;;;;29.48;9.00;;;22.50;77.40;;;;;;5022298;28;20045;-68
2023/09/09 04:47:08;;;;;;;36.35;8.70;;;23.60;78.40;;;;;;5033160;28;20068;-69
2023/09/09 04:50:13;;;;;;;29.02;9.52;;;22.60;77.30;;;;;;5033177;28;20052;-67
2023/09/09 04:53:17;;;;;;;27.40;9.52;;;22.70;77.30;;;;;;5033201;28;20045;-69
2023/09/09 04:56:22;;;;;;;22.40;8.32;;;22.80;77.90;;;;;;5034261;28;20040;-67
2023/09/09 04:59:27;;;;;;;26.15;9.45;;;22.60;78.20;;;;;;5033466;28;20048;-68
2023/09/09 05:02:31;;;;;;;24.02;9.40;;;22.60;77.50;;;;;;5034295;28;20060;-68
2023/09/09 05:05:35;;;;;;;22.00;9.02;;;22.50;77.60;;;;;;5033009;28;20068;-70
2023/09/09 05:08:40;;;;;;;24.30;12.15;;;22.60;77.90;;;;;;5033250;28;20115;-68
2023/09/09 05:11:43;;;;;;;49.90;23.80;;;22.70;77.50;;;;;;5034205;28;20048;-69
2023/09/09 05:14:50;;;;;;;54.60;24.77;;;23.00;76.00;;;;;;5032808;28;20044;-69
2023/09/09 05:17:54;;;;;;;46.35;17.23;;;22.90;76.30;;;;;;5032828;28;20056;-68
2023/09/09 05:20:58;;;;;;;41.60;15.10;;;22.90;77.20;;;;;;5032721;28;20045;-68
2023/09/09 05:24:02;;;;;;;34.83;15.23;;;23.10;76.50;;;;;;5032714;28;20037;-68
2023/09/09 05:27:06;;;;;;;36.50;15.65;;;23.30;76.80;;;;;;5033334;28;20057;-67
2023/09/09 05:30:11;;;;;;;44.17;15.52;;;23.90;75.80;;;;;;5033689;28;20048;-68
2023/09/09 05:33:15;;;;;;;51.78;16.70;;;24.60;74.20;;;;;;5033522;28;20048;-68
2023/09/09 05:36:18;;;;;;;37.22;16.38;;;25.60;71.70;;;;;;5032587;28;20044;-68
2023/09/09 05:39:22;;;;;;;42.03;19.00;;;26.00;71.30;;;;;;5033287;28;20044;-69
2023/09/09 05:42:26;;;;;;;61.92;19.88;;;26.00;71.70;;;;;;5055450;28;20048;-69
2023/09/09 05:45:30;;;;;;;43.22;18.42;;;26.10;71.80;;;;;;5032681;28;20049;-69
2023/09/09 05:48:37;;;;;;;40.55;18.80;;;25.90;70.90;;;;;;5032473;28;20516;-68
2023/09/09 05:51:41;;;;;;;38.28;17.15;;;26.00;70.50;;;;;;5032049;28;20531;-68
2023/09/09 05:54:45;;;;;;;41.10;17.10;;;26.20;69.00;;;;;;5032324;28;20048;-69
2023/09/09 05:57:49;;;;;;;50.67;14.55;;;26.80;68.80;;;;;;5031993;28;20041;-68
2023/09/09 06:00:53;;;;;;;45.45;14.85;;;27.60;67.00;;;;;;5032337;28;20052;-69
2023/09/09 06:03:59;;;;;;;71.85;14.70;;;28.00;66.20;;;;;;5032010;28;20044;-64
2023/09/09 06:07:04;;;;;;;55.10;12.90;;;28.20;67.40;;;;;;5031821;28;20056;-65
2023/09/09 06:10:08;;;;;;;46.50;12.80;;;28.40;66.00;;;;;;5031737;28;20398;-64
2023/09/09 06:13:13;;;;;;;33.33;14.45;;;28.20;66.40;;;;;;5031945;28;20048;-65
2023/09/09 06:16:17;;;;;;;28.75;14.10;;;28.30;67.00;;;;;;5032873;28;20049;-64
2023/09/09 06:19:21;;;;;;;33.05;14.68;;;28.40;66.70;;;;;;5031636;28;20489;-65
2023/09/09 06:22:25;;;;;;;29.15;13.13;;;28.50;66.60;;;;;;5031624;28;20100;-65
2023/09/09 06:25:30;;;;;;;27.70;13.90;;;28.60;65.80;;;;;;5031977;28;20053;-71
2023/09/09 06:28:35;;;;;;;35.75;12.82;;;28.70;65.60;;;;;;5031371;28;20072;-65
2023/09/09 06:31:39;;;;;;;34.47;11.90;;;28.80;66.40;;;;;;5031358;28;20052;-68
2023/09/09 06:34:43;;;;;;;40.10;11.75;;;28.90;66.40;;;;;;5031477;28;20420;-65
2023/09/09 06:37:47;;;;;;;38.58;12.32;;;28.90;65.50;;;;;;5031254;28;20045;-63
2023/09/09 06:40:51;;;;;;;29.02;11.43;;;29.00;65.90;;;;;;5032294;28;20052;-65
2023/09/09 06:43:55;;;;;;;27.02;12.07;;;29.30;65.40;;;;;;5032048;28;20036;-65
2023/09/09 06:46:59;;;;;;;34.90;11.52;;;29.60;65.00;;;;;;5031414;28;20060;-64
2023/09/09 06:50:03;;;;;;;28.73;10.13;;;29.70;65.10;;;;;;5032128;28;20045;-67
2023/09/09 06:53:07;;;;;;;35.38;10.60;;;30.00;64.70;;;;;;5031869;28;20531;-65
2023/09/09 06:56:11;;;;;;;29.75;9.55;;;30.10;64.40;;;;;;5031777;28;20052;-65
2023/09/09 06:59:15;;;;;;;30.52;9.40;;;30.20;63.40;;;;;;5032076;28;20666;-65
2023/09/09 07:02:19;;;;;;;29.73;9.50;;;30.20;63.20;;;;;;5031639;28;20048;-66
2023/09/09 07:05:23;;;;;;;35.35;10.63;;;30.20;63.90;;;;;;5030930;28;20397;-65
2023/09/09 07:08:28;;;;;;;40.92;11.00;;;30.00;63.80;;;;;;5031335;28;20049;-66
2023/09/09 07:11:32;;;;;;;28.38;9.20;;;30.00;64.20;;;;;;5031579;28;20041;-66
2023/09/09 07:14:36;;;;;;;34.08;10.40;;;30.10;63.80;;;;;;5031320;28;20048;-63
2023/09/09 07:17:43;;;;;;;23.98;9.15;;;30.30;63.70;;;;;;5031669;28;20056;-64
2023/09/09 07:20:48;;;;;;;38.08;8.13;;;30.40;63.00;;;;;;5031540;28;20041;-64
2023/09/09 07:23:52;;;;;;;24.98;7.75;;;30.60;62.20;;;;;;5031552;28;20044;-65
2023/09/09 07:26:59;;;;;;;26.70;7.40;;;30.70;61.20;;;;;;5031455;28;20060;-64
2023/09/09 07:30:04;;;;;;;28.17;8.23;;;30.70;61.50;;;;;;5031264;28;20453;-65
2023/09/09 07:33:12;;;;;;;27.63;7.53;;;30.80;61.00;;;;;;5031190;28;20064;-64
2023/09/09 07:36:16;;;;;;;32.20;9.23;;;30.70;61.60;;;;;;5031460;28;20053;-64
2023/09/09 07:39:20;;;;;;;33.08;10.57;;;30.80;61.30;;;;;;5031441;28;20159;-65
2023/09/09 07:42:23;;;;;;;41.17;11.82;;;30.80;62.40;;;;;;5031239;28;20469;-66
2023/09/09 07:45:28;;;;;;;29.17;8.75;;;31.10;62.50;;;;;;5030398;28;20040;-65
2023/09/09 07:48:32;;;;;;;22.27;7.32;;;31.20;61.40;;;;;;5030773;28;20052;-64
2023/09/09 07:51:36;;;;;;;33.75;9.25;;;31.30;60.50;;;;;;5031146;28;20068;-64
2023/09/09 07:54:40;;;;;;;20.00;7.47;;;31.40;61.50;;;;;;5030824;28;20500;-64
2023/09/09 07:57:44;;;;;;;28.02;8.15;;;31.30;60.30;;;;;;5030900;28;20496;-64
2023/09/09 08:01:06;;;;;;;22.20;8.40;;;31.40;61.10;;;;;;5030996;28;20048;-66
2023/09/09 08:04:10;;;;;;;44.65;8.18;;;31.50;60.40;;;;;;5030913;28;20053;-65
2023/09/09 08:07:14;;;;;;;21.55;7.32;;;31.70;60.90;;;;;;5030711;28;20041;-67
2023/09/09 08:10:20;;;;;;;30.80;9.20;;;31.70;60.00;;;;;;5030704;28;20525;-67
2023/09/09 08:13:25;;;;;;;21.08;7.53;;;31.80;60.40;;;;;;5030644;28;20040;-64
2023/09/09 08:16:30;;;;;;;77.28;10.98;;;31.70;60.70;;;;;;5030763;28;20048;-64
2023/09/09 08:19:33;;;;;;;20.83;6.80;;;31.70;60.90;;;;;;5030412;28;20481;-67
2023/09/09 08:22:37;;;;;;;31.02;7.90;;;31.60;60.40;;;;;;5030895;28;20044;-65
2023/09/09 08:25:41;;;;;;;22.17;7.20;;;31.70;60.90;;;;;;5030715;28;20056;-66
2023/09/09 08:28:45;;;;;;;17.92;6.97;;;31.80;60.70;;;;;;5030382;28;20064;-65
2023/09/09 08:31:49;;;;;;;18.48;7.15;;;31.90;60.60;;;;;;5030340;28;20044;-64
2023/09/09 08:34:54;;;;;;;22.73;6.60;;;32.00;60.40;;;;;;5030739;28;20061;-64
2023/09/09 08:38:00;;;;;;;9.90;5.85;;;32.00;59.00;;;;;;5030541;28;20048;-65
2023/09/09 08:41:19;;;;;;;18.27;6.45;;;32.00;59.10;;;;;;5029706;28;20116;-65
2023/09/09 08:44:59;;;;;;;20.45;6.63;;;31.90;59.10;;;;;;5030719;28;20049;-64
2023/09/09 08:48:10;;;;;;;13.00;6.23;;;32.00;59.30;;;;;;5029609;28;20049;-65
2023/09/09 08:51:17;;;;;;;13.88;6.10;;;32.00;59.10;;;;;;5030616;28;20044;-66
2023/09/09 08:54:21;;;;;;;13.85;5.90;;;32.10;58.50;;;;;;5030225;28;20369;-66
2023/09/09 08:57:27;;;;;;;9.10;5.50;;;32.10;58.40;;;;;;5033214;28;20049;-65
2023/09/09 09:00:33;;;;;;;11.10;5.95;;;32.10;58.60;;;;;;5033360;28;20500;-66
2023/09/09 09:03:37;;;;;;;11.77;6.53;;;32.10;59.00;;;;;;5033909;28;20060;-67
2023/09/09 09:06:42;;;;;;;18.15;6.85;;;32.20;59.30;;;;;;5034011;28;20373;-65
2023/09/09 09:09:46;;;;;;;8.23;5.47;;;32.20;59.60;;;;;;5033661;28;20064;-66
2023/09/09 09:12:50;;;;;;;10.95;6.00;;;32.20;59.80;;;;;;5033434;28;20040;-67
2023/09/09 09:15:54;;;;;;;11.88;6.35;;;32.30;58.60;;;;;;5033486;28;20052;-65
2023/09/09 09:19:02;;;;;;;9.82;5.82;;;32.30;59.30;;;;;;5033748;28;20044;-65
2023/09/09 09:22:07;;;;;;;9.18;6.15;;;32.30;59.30;;;;;;5033393;28;20386;-65
2023/09/09 09:25:13;;;;;;;15.40;7.32;;;32.40;58.60;;;;;;5033673;28;20052;-67
2023/09/09 09:28:17;;;;;;;22.65;7.32;;;32.50;58.60;;;;;;5032327;28;20508;-64
2023/09/09 09:31:22;;;;;;;13.32;7.05;;;32.50;58.70;;;;;;5033208;28;20048;-66
2023/09/09 09:34:34;;;;;;;13.93;6.57;;;32.50;58.80;;;;;;5032235;28;20060;-65
2023/09/09 09:37:38;;;;;;;15.85;6.28;;;32.40;58.90;;;;;;5031515;28;20053;-69
2023/09/09 09:40:42;;;;;;;13.15;7.50;;;32.40;59.30;;;;;;5032512;28;20128;-66
2023/09/09 09:43:46;;;;;;;12.80;6.85;;;32.50;58.70;;;;;;5032871;28;20045;-66
2023/09/09 09:47:02;;;;;;;19.10;7.03;;;32.40;58.80;;;;;;5031596;28;20500;-68
2023/09/09 09:50:15;;;;;;;20.05;6.82;;;32.40;58.30;;;;;;5032880;28;20501;-65
2023/09/09 09:53:19;;;;;;;16.90;7.57;;;32.40;58.50;;;;;;5032067;28;20143;-64
2023/09/09 09:56:23;;;;;;;17.30;6.95;;;32.40;58.80;;;;;;5031280;28;20401;-65
2023/09/09 09:59:33;;;;;;;13.82;6.50;;;32.40;58.70;;;;;;5031441;28;20044;-66
2023/09/09 10:02:39;;;;;;;13.18;5.63;;;32.30;57.80;;;;;;5032505;28;20080;-65
2023/09/09 10:05:48;;;;;;;10.10;6.13;;;32.30;58.50;;;;;;5032422;28;20041;-66
2023/09/09 10:08:57;;;;;;;11.18;5.75;;;32.50;57.90;;;;;;5031616;28;20049;-66
2023/09/09 10:12:33;;;;;;;11.68;6.40;;;32.60;58.00;;;;;;5032538;28;20052;-63
2023/09/09 10:15:38;;;;;;;12.35;6.10;;;32.80;57.60;;;;;;5032595;28;20048;-66
2023/09/09 10:18:44;;;;;;;11.02;6.63;;;32.80;56.70;;;;;;5032567;28;20120;-67
2023/09/09 10:21:50;;;;;;;12.98;6.30;;;32.60;56.40;;;;;;5032721;28;20049;-65
2023/09/09 10:24:56;;;;;;;17.20;6.93;;;32.70;57.00;;;;;;5032231;28;20048;-65
2023/09/09 10:28:01;;;;;;;8.57;6.13;;;32.70;57.40;;;;;;5032070;28;20559;-63
2023/09/09 10:31:11;;;;;;;21.85;6.80;;;32.60;57.40;;;;;;5032100;28;20095;-66
2023/09/09 10:34:16;;;;;;;17.73;6.95;;;32.70;57.70;;;;;;5032061;28;20053;-66
2023/09/09 10:37:20;;;;;;;12.07;6.65;;;32.70;57.70;;;;;;5032209;28;20040;-65
2023/09/09 10:40:25;;;;;;;21.73;8.60;;;32.70;57.20;;;;;;5031938;28;20052;-65
2023/09/09 10:43:32;;;;;;;17.00;7.40;;;32.70;57.70;;;;;;5031390;28;20044;-68
2023/09/09 10:46:40;;;;;;;28.42;7.75;;;32.70;57.00;;;;;;5031881;28;20052;-66
2023/09/09 10:49:43;;;;;;;20.00;6.60;;;32.80;56.90;;;;;;5032205;28;20048;-66
2023/09/09 10:52:51;;;;;;;16.73;6.38;;;32.70;57.50;;;;;;5032245;28;20040;-65
2023/09/09 10:56:00;;;;;;;23.17;6.43;;;32.70;57.30;;;;;;5031970;28;20044;-67
2023/09/09 10:59:21;;;;;;;17.27;6.65;;;32.70;57.00;;;;;;5031830;28;20044;-65
2023/09/09 11:02:28;;;;;;;17.05;7.32;;;32.70;56.70;;;;;;5031767;28;20053;-66
2023/09/09 11:06:07;;;;;;;20.15;7.25;;;32.60;56.40;;;;;;5031430;28;20535;-66
2023/09/09 11:09:11;;;;;;;13.27;7.03;;;32.60;56.30;;;;;;5030588;28;20068;-66
2023/09/09 11:12:16;;;;;;;13.07;6.25;;;32.60;56.60;;;;;;5031671;28;20052;-65
2023/09/09 11:15:24;;;;;;;15.68;6.43;;;32.70;56.90;;;;;;5031784;28;20048;-67
2023/09/09 11:18:29;;;;;;;21.40;6.38;;;32.70;56.50;;;;;;5031306;28;20052;-65
2023/09/09 11:21:35;;;;;;;11.68;6.28;;;32.50;56.30;;;;;;5031685;28;20596;-66
2023/09/09 11:24:40;;;;;;;14.82;6.57;;;32.60;57.10;;;;;;5031320;28;20413;-67
2023/09/09 11:27:44;;;;;;;13.48;5.00;;;32.50;56.30;;;;;;5031067;28;20064;-65
2023/09/09 11:30:48;;;;;;;10.30;4.97;;;32.40;55.90;;;;;;5031369;28;20054;-67
2023/09/09 11:33:56;;;;;;;8.98;5.72;;;32.40;56.50;;;;;;5031031;28;20057;-67
2023/09/09 11:37:01;;;;;;;14.23;5.07;;;32.40;56.20;;;;;;5031133;28;20524;-65
2023/09/09 11:40:06;;;;;;;8.73;5.35;;;32.40;56.50;;;;;;5031147;28;20111;-65
2023/09/09 11:43:10;;;;;;;6.38;4.45;;;32.30;57.30;;;;;;5031083;28;20040;-67
2023/09/09 11:46:14;;;;;;;13.82;6.10;;;32.30;57.80;;;;;;5031243;28;20048;-67
2023/09/09 11:49:18;;;;;;;11.18;5.90;;;32.40;56.70;;;;;;5030985;28;20519;-65
2023/09/09 11:52:23;;;;;;;16.00;6.15;;;32.50;56.20;;;;;;5031143;28;20101;-66
2023/09/09 11:55:27;;;;;;;10.45;5.60;;;32.50;56.60;;;;;;5030910;28;20056;-65
2023/09/09 11:58:41;;;;;;;16.70;6.38;;;32.60;57.60;;;;;;5030969;28;20068;-66
2023/09/09 12:01:46;;;;;;;17.45;5.78;;;32.60;56.40;;;;;;5031027;28;20160;-67
2023/09/09 12:04:58;;;;;;;24.25;6.60;;;32.70;56.60;;;;;;5030829;28;20040;-67
2023/09/09 12:08:03;;;;;;;15.52;5.75;;;32.60;56.10;;;;;;5030507;28;20400;-65
2023/09/09 12:14:32;;;;;;;10.25;5.35;;;32.50;56.10;;;;;;5030963;28;20048;-66
2023/09/09 12:17:38;;;;;;;9.20;5.28;;;32.30;56.00;;;;;;5029716;28;20045;-65
2023/09/09 12:21:02;;;;;;;14.73;5.70;;;32.30;56.10;;;;;;5030488;28;20056;-68
2023/09/09 12:24:06;;;;;;;11.80;5.68;;;32.40;56.50;;;;;;5030937;28;20061;-66
2023/09/09 12:27:10;;;;;;;9.95;5.40;;;32.50;56.40;;;;;;5030506;28;20040;-65
2023/09/09 12:30:33;;;;;;;12.25;5.30;;;32.50;56.40;;;;;;5030644;28;20519;-69
2023/09/09 12:33:47;;;;;;;9.40;5.13;;;32.50;56.50;;;;;;5034262;28;20048;-65
2023/09/09 12:36:56;;;;;;;14.55;5.78;;;32.60;56.40;;;;;;5034735;28;20068;-64
2023/09/09 12:40:00;;;;;;;10.07;5.28;;;32.60;55.80;;;;;;5034421;28;20074;-65
2023/09/09 12:43:10;;;;;;;9.90;5.32;;;32.60;56.30;;;;;;5034280;28;20044;-65
2023/09/09 12:46:16;;;;;;;16.60;6.43;;;32.50;56.00;;;;;;5034383;28;20052;-65
2023/09/09 12:49:20;;;;;;;10.73;5.22;;;32.50;56.50;;;;;;5034245;28;20064;-64
2023/09/09 12:52:31;;;;;;;10.88;5.35;;;32.50;55.60;;;;;;5034129;28;20044;-66
2023/09/09 12:55:35;;;;;;;13.25;5.97;;;32.50;55.70;;;;;;5034249;28;20501;-66
2023/09/09 12:58:39;;;;;;;9.52;5.18;;;32.40;55.90;;;;;;5034238;28;20044;-65
2023/09/09 13:01:42;;;;;;;7.22;5.40;;;32.50;56.10;;;;;;5034113;28;20044;-66
2023/09/09 13:04:46;;;;;;;10.55;5.45;;;32.50;56.70;;;;;;5033964;28;20045;-66
2023/09/09 13:07:50;;;;;;;8.23;5.47;;;32.60;56.20;;;;;;5034064;28;20048;-66
2023/09/09 13:10:54;;;;;;;9.77;5.57;;;32.60;55.50;;;;;;5033856;28;20516;-65
2023/09/09 13:14:01;;;;;;;8.98;5.80;;;32.60;56.10;;;;;;5033778;28;20389;-65
2023/09/09 13:17:04;;;;;;;10.60;5.50;;;32.60;56.30;;;;;;5033761;28;20044;-66
2023/09/09 13:20:10;;;;;;;8.18;5.90;;;32.60;56.50;;;;;;5033847;28;20045;-65
2023/09/09 13:23:14;;;;;;;8.80;5.30;;;32.70;56.00;;;;;;5033698;28;20053;-64
2023/09/09 13:26:18;;;;;;;11.43;5.65;;;34.20;54.50;;;;;;5033466;28;20041;-63
2023/09/09 13:29:23;;;;;;;9.20;6.22;;;35.10;53.80;;;;;;5033586;28;20052;-64
2023/09/09 13:32:27;;;;;;;7.75;5.38;;;36.20;53.00;;;;;;5033635;28;20045;-65
2023/09/09 13:35:31;;;;;;;9.00;5.53;;;35.30;52.80;;;;;;5032875;28;20048;-64
2023/09/09 13:38:35;;;;;;;16.05;5.88;;;35.50;53.30;;;;;;5033754;28;20394;-66
2023/09/09 13:41:39;;;;;;;7.10;5.30;;;36.10;53.00;;;;;;5033427;28;20428;-65
2023/09/09 13:44:43;;;;;;;10.30;5.72;;;36.70;52.40;;;;;;5033720;28;20052;-65
2023/09/09 13:47:47;;;;;;;10.07;6.00;;;36.60;52.40;;;;;;5033005;28;20068;-66
2023/09/09 13:50:52;;;;;;;8.45;5.63;;;36.40;52.40;;;;;;5033265;28;20048;-65
2023/09/09 13:53:55;;;;;;;8.05;5.63;;;36.70;52.60;;;;;;5032824;28;20041;-67
2023/09/09 13:57:01;;;;;;;13.73;6.43;;;36.50;52.70;;;;;;5031373;28;20057;-66
2023/09/09 14:00:06;;;;;;;5.60;4.95;;;36.60;53.00;;;;;;5031343;28;20049;-65
2023/09/09 14:03:13;;;;;;;9.25;5.40;;;36.90;52.40;;;;;;5032367;28;20044;-66
2023/09/09 14:06:17;;;;;;;10.82;5.50;;;36.10;53.30;;;;;;5030331;28;20401;-67
2023/09/09 14:09:21;;;;;;;5.93;5.18;;;35.10;53.60;;;;;;5030908;28;20402;-67
2023/09/09 14:12:24;;;;;;;13.95;6.28;;;34.60;55.10;;;;;;5031150;28;20061;-67
2023/09/09 14:15:31;;;;;;;10.13;5.00;;;34.10;55.70;;;;;;5032051;28;20068;-66
2023/09/09 14:18:37;;;;;;;9.93;5.75;;;33.70;56.10;;;;;;5031970;28;20044;-66
2023/09/09 14:21:42;;;;;;;11.60;5.40;;;33.50;56.10;;;;;;5032668;28;20048;-67
2023/09/09 14:24:46;;;;;;;8.57;5.88;;;33.20;56.70;;;;;;5032462;28;20037;-66
2023/09/09 14:27:50;;;;;;;10.70;5.53;;;33.20;56.80;;;;;;5032532;28;20053;-67
2023/09/09 14:30:53;;;;;;;10.13;5.72;;;33.10;57.10;;;;;;5032115;28;20045;-66
2023/09/09 14:33:57;;;;;;;12.07;5.90;;;33.00;57.30;;;;;;5032080;28;20057;-67
2023/09/09 14:37:02;;;;;;;12.68;5.38;;;32.90;57.10;;;;;;5032055;28;20040;-66
2023/09/09 14:40:09;;;;;;;7.20;6.03;;;32.90;57.00;;;;;;5032069;28;20048;-68
2023/09/09 14:43:14;;;;;;;6.80;5.18;;;32.90;57.30;;;;;;5031928;28;20040;-68
2023/09/09 14:46:18;;;;;;;6.00;5.13;;;32.80;57.50;;;;;;5032072;28;20535;-68
2023/09/09 14:49:22;;;;;;;12.05;5.53;;;32.80;58.30;;;;;;5031873;28;20068;-68
2023/09/09 14:52:30;;;;;;;7.90;5.40;;;32.80;57.70;;;;;;5031848;28;20044;-67
2023/09/09 14:55:34;;;;;;;7.30;5.22;;;32.60;58.20;;;;;;5031781;28;20044;-65
2023/09/09 14:58:38;;;;;;;11.27;5.07;;;32.40;58.00;;;;;;5031957;28;20033;-67
2023/09/09 15:01:42;;;;;;;11.63;5.97;;;32.40;58.10;;;;;;5031760;28;20052;-67
2023/09/09 15:04:46;;;;;;;7.70;4.82;;;32.40;58.30;;;;;;5031953;28;20040;-67
2023/09/09 15:07:50;;;;;;;7.55;4.90;;;32.30;58.40;;;;;;5031581;28;20052;-67
2023/09/09 15:10:54;;;;;;;10.18;5.07;;;32.20;58.60;;;;;;5032011;28;20056;-66
2023/09/09 15:13:59;;;;;;;6.68;4.88;;;32.20;58.50;;;;;;5031779;28;20044;-66
2023/09/09 15:17:04;;;;;;;10.10;4.85;;;32.20;58.80;;;;;;5031359;28;20052;-68
2023/09/09 15:20:09;;;;;;;9.75;5.60;;;32.10;58.90;;;;;;5031716;28;20496;-66
2023/09/09 15:23:13;;;;;;;11.38;5.45;;;32.20;59.20;;;;;;5031637;28;20054;-67
2023/09/09 15:26:17;;;;;;;11.38;5.90;;;32.20;59.40;;;;;;5031404;28;20064;-67
2023/09/09 15:29:21;;;;;;;11.75;6.05;;;32.20;60.20;;;;;;5031250;28;20060;-67
2023/09/09 15:32:25;;;;;;;20.17;8.60;;;32.20;61.60;;;;;;5030998;28;20048;-67
2023/09/09 15:35:28;;;;;;;12.95;8.15;;;32.20;62.50;;;;;;5031075;28;20052;-65
2023/09/09 15:38:35;;;;;;;13.73;9.30;;;32.20;63.10;;;;;;5031444;28;20635;-67
2023/09/09 15:41:41;;;;;;;17.60;9.20;;;32.20;63.50;;;;;;5030869;28;20040;-67
2023/09/09 15:44:49;;;;;;;13.73;10.35;;;32.20;63.80;;;;;;5031159;28;20049;-67
2023/09/09 15:47:53;;;;;;;16.40;9.15;;;32.10;64.10;;;;;;5030898;28;20520;-66
2023/09/09 15:50:57;;;;;;;11.57;8.50;;;32.10;64.00;;;;;;5031174;28;20060;-68
2023/09/09 15:54:01;;;;;;;12.57;9.00;;;32.10;63.60;;;;;;5031160;28;20044;-67
2023/09/09 15:57:05;;;;;;;13.95;7.60;;;32.00;63.10;;;;;;5030735;28;20689;-67